| time (UTC) | temp F | wind direction | speed MPH | gust MPH | rain 1hr in | rain 24hr in | rain mn in | humidity % | barometer mb |
| 20260508205534 | 65 | 213 | 5.0 | 10.0 | 0.00 | 0.00 | 0.00 | 41 | 1008.9 |
| 20260508205055 | 66 | 217 | 6.0 | 10.0 | 0.00 | 0.00 | 0.00 | 40 | 1008.9 |
| 20260508204555 | 68 | 227 | 6.0 | 12.0 | 0.00 | 0.00 | 0.00 | 39 | 1009.0 |
| 20260508204034 | 68 | 233 | 7.0 | 13.0 | 0.00 | 0.00 | 0.00 | 39 | 1009.0 |
| 20260508203535 | 69 | 195 | 4.0 | 14.0 | 0.00 | 0.00 | 0.00 | 37 | 1009.4 |
| 20260508203034 | 67 | 196 | 3.0 | 6.0 | 0.00 | 0.00 | 0.00 | 39 | 1009.3 |
| 20260508202534 | 66 | 211 | 3.0 | 8.0 | 0.00 | 0.00 | 0.00 | 41 | 1009.7 |
| 20260508202035 | 66 | 218 | 4.0 | 8.0 | 0.00 | 0.00 | 0.00 | 40 | 1009.7 |
| 20260508201535 | 66 | 220 | 4.0 | 8.0 | 0.00 | 0.00 | 0.00 | 40 | 1009.6 |
| 20260508201056 | 66 | 234 | 7.0 | 11.0 | 0.00 | 0.00 | 0.00 | 41 | 1009.6 |
| 20260508200534 | 66 | 225 | 6.0 | 10.0 | 0.00 | 0.00 | 0.00 | 41 | 1010.0 |
| 20260508200054 | 67 | 206 | 7.0 | 13.0 | 0.00 | 0.00 | 0.00 | 40 | 1009.7 |
| 20260508195535 | 65 | 208 | 4.0 | 10.0 | 0.00 | 0.00 | 0.00 | 42 | 1009.9 |
| 20260508195035 | 64 | 233 | 2.0 | 4.0 | 0.00 | 0.00 | 0.00 | 45 | 1009.9 |
| 20260508194534 | 64 | 255 | 4.0 | 6.0 | 0.00 | 0.00 | 0.00 | 45 | 1009.9 |
| 20260508194034 | 64 | 244 | 3.0 | 7.0 | 0.00 | 0.00 | 0.00 | 42 | 1009.9 |
| 20260508193534 | 65 | 219 | 5.0 | 11.0 | 0.00 | 0.00 | 0.00 | 44 | 1010.3 |
| 20260508193035 | 65 | 183 | 2.0 | 7.0 | 0.00 | 0.00 | 0.00 | 45 | 1010.3 |
| 20260508192535 | 65 | 182 | 2.0 | 7.0 | 0.00 | 0.00 | 0.00 | 45 | 1010.3 |
| 20260508192054 | 64 | 166 | 2.0 | 5.0 | 0.00 | 0.00 | 0.00 | 46 | 1010.6 |
| 20260508191535 | 63 | 218 | 3.0 | 9.0 | 0.00 | 0.00 | 0.00 | 47 | 1010.6 |
| 20260508191034 | 64 | 195 | 5.0 | 8.0 | 0.00 | 0.00 | 0.00 | 47 | 1010.6 |
| 20260508190535 | 63 | 217 | 4.0 | 8.0 | 0.00 | 0.00 | 0.00 | 45 | 1010.6 |
| 20260508190035 | 63 | 208 | 7.0 | 12.0 | 0.00 | 0.00 | 0.00 | 44 | 1010.6 |
| 20260508185534 | 64 | 224 | 3.0 | 6.0 | 0.00 | 0.00 | 0.00 | 45 | 1010.6 |
| 20260508185035 | 64 | 229 | 5.0 | 10.0 | 0.00 | 0.00 | 0.00 | 44 | 1010.6 |
| 20260508184555 | 66 | 201 | 4.0 | 8.0 | 0.00 | 0.00 | 0.00 | 43 | 1010.7 |
| 20260508184036 | 65 | 214 | 4.0 | 10.0 | 0.00 | 0.00 | 0.00 | 43 | 1010.6 |
| 20260508183555 | 67 | 190 | 3.0 | 7.0 | 0.00 | 0.00 | 0.00 | 42 | 1011.0 |
| 20260508183034 | 66 | 192 | 3.0 | 9.0 | 0.00 | 0.00 | 0.00 | 43 | 1011.0 |
| 20260508182534 | 65 | 208 | 3.0 | 5.0 | 0.00 | 0.00 | 0.00 | 45 | 1011.0 |
| 20260508182116 | 63 | 185 | 2.0 | 6.0 | 0.00 | 0.00 | 0.00 | 44 | 1010.9 |
| 20260508181535 | 64 | 172 | 3.0 | 8.0 | 0.00 | 0.00 | 0.00 | 44 | 1011.3 |
| 20260508181035 | 62 | 188 | 3.0 | 8.0 | 0.00 | 0.00 | 0.00 | 45 | 1011.2 |
| 20260508180534 | 61 | 222 | 4.0 | 9.0 | 0.00 | 0.00 | 0.00 | 45 | 1011.2 |
| 20260508180037 | 62 | 251 | 3.0 | 7.0 | 0.00 | 0.00 | 0.00 | 43 | 1011.2 |
| 20260508175534 | 62 | 260 | 4.0 | 8.0 | 0.00 | 0.00 | 0.00 | 43 | 1011.2 |
| 20260508175035 | 62 | 221 | 3.0 | 7.0 | 0.00 | 0.00 | 0.00 | 42 | 1011.6 |
| 20260508174535 | 62 | 234 | 4.0 | 8.0 | 0.00 | 0.00 | 0.00 | 45 | 1011.6 |
| 20260508174034 | 61 | 251 | 4.0 | 8.0 | 0.00 | 0.00 | 0.00 | 45 | 1011.6 |
| 20260508173535 | 61 | 224 | 6.0 | 10.0 | 0.00 | 0.00 | 0.00 | 45 | 1011.9 |
| 20260508173035 | 61 | 217 | 8.0 | 13.0 | 0.00 | 0.00 | 0.00 | 44 | 1011.9 |
| 20260508172535 | 62 | 218 | 5.0 | 12.0 | 0.00 | 0.00 | 0.00 | 44 | 1011.9 |
| 20260508172035 | 63 | 209 | 4.0 | 9.0 | 0.00 | 0.00 | 0.00 | 44 | 1012.0 |
| 20260508171555 | 62 | 208 | 3.0 | 11.0 | 0.00 | 0.00 | 0.00 | 45 | 1011.9 |
| 20260508171055 | 63 | 194 | 5.0 | 11.0 | 0.00 | 0.00 | 0.00 | 44 | 1012.3 |
| 20260508170535 | 64 | 176 | 2.0 | 6.0 | 0.00 | 0.00 | 0.00 | 44 | 1012.3 |
| 20260508170034 | 62 | 187 | 2.0 | 8.0 | 0.00 | 0.00 | 0.00 | 47 | 1012.3 |
| 20260508165554 | 61 | 205 | 5.0 | 10.0 | 0.00 | 0.00 | 0.00 | 46 | 1012.3 |
| 20260508165055 | 60 | 231 | 3.0 | 7.0 | 0.00 | 0.00 | 0.00 | 44 | 1012.3 |
| 20260508164534 | 60 | 258 | 4.0 | 8.0 | 0.00 | 0.00 | 0.00 | 44 | 1012.6 |
| 20260508164035 | 60 | 249 | 5.0 | 9.0 | 0.00 | 0.00 | 0.00 | 43 | 1012.6 |
| 20260508163535 | 60 | 224 | 4.0 | 10.0 | 0.00 | 0.00 | 0.00 | 43 | 1012.6 |
| 20260508163054 | 60 | 229 | 4.0 | 7.0 | 0.00 | 0.00 | 0.00 | 43 | 1012.6 |
| 20260508162555 | 61 | 215 | 5.0 | 10.0 | 0.00 | 0.00 | 0.00 | 42 | 1012.6 |
| 20260508162034 | 62 | 195 | 3.0 | 9.0 | 0.00 | 0.00 | 0.00 | 42 | 1012.7 |
| 20260508161535 | 61 | 215 | 3.0 | 6.0 | 0.00 | 0.00 | 0.00 | 43 | 1012.7 |
| 20260508161035 | 61 | 179 | 2.0 | 6.0 | 0.00 | 0.00 | 0.00 | 43 | 1012.7 |
| 20260508160534 | 60 | 221 | 3.0 | 6.0 | 0.00 | 0.00 | 0.00 | 44 | 1012.6 |
| 20260508160036 | 60 | 214 | 4.0 | 9.0 | 0.00 | 0.00 | 0.00 | 44 | 1012.6 |
| 20260508155535 | 62 | 187 | 3.0 | 6.0 | 0.00 | 0.00 | 0.00 | 45 | 1012.7 |
| 20260508155055 | 62 | 124 | 1.0 | 3.0 | 0.00 | 0.00 | 0.00 | 44 | 1012.7 |
| 20260508154535 | 61 | 148 | 2.0 | 5.0 | 0.00 | 0.00 | 0.00 | 47 | 1013.0 |
| 20260508154054 | 59 | 191 | 1.0 | 4.0 | 0.00 | 0.00 | 0.00 | 48 | 1013.0 |
| 20260508153535 | 58 | 173 | 2.0 | 4.0 | 0.00 | 0.00 | 0.00 | 47 | 1013.0 |
| 20260508153055 | 58 | 219 | 3.0 | 6.0 | 0.00 | 0.00 | 0.00 | 48 | 1013.0 |
| 20260508152535 | 59 | 195 | 2.0 | 4.0 | 0.00 | 0.00 | 0.00 | 48 | 1013.0 |
| 20260508152035 | 58 | 194 | 1.0 | 3.0 | 0.00 | 0.00 | 0.00 | 50 | 1013.0 |
| 20260508151534 | 57 | 209 | 2.0 | 3.0 | 0.00 | 0.00 | 0.00 | 52 | 1013.0 |
| 20260508151055 | 57 | 288 | 2.0 | 4.0 | 0.00 | 0.00 | 0.00 | 52 | 1013.0 |
| 20260508150534 | 57 | 282 | 3.0 | 6.0 | 0.00 | 0.00 | 0.00 | 52 | 1013.3 |
| 20260508150035 | 57 | 177 | 1.0 | 2.0 | 0.00 | 0.00 | 0.00 | 51 | 1013.3 |
| 20260508145535 | 58 | 193 | 2.0 | 3.0 | 0.00 | 0.00 | 0.00 | 51 | 1013.3 |
| 20260508145034 | 58 | 137 | 1.0 | 3.0 | 0.00 | 0.00 | 0.00 | 52 | 1013.3 |
| 20260508144534 | 57 | 98 | 2.0 | 4.0 | 0.00 | 0.00 | 0.00 | 53 | 1013.3 |
| 20260508144035 | 56 | 43 | 2.0 | 4.0 | 0.00 | 0.00 | 0.00 | 53 | 1013.3 |
| 20260508143535 | 56 | 202 | 2.0 | 4.0 | 0.00 | 0.00 | 0.00 | 57 | 1013.3 |
| 20260508143035 | 56 | 254 | 2.0 | 4.0 | 0.00 | 0.00 | 0.00 | 58 | 1013.3 |
| 20260508142534 | 56 | 34 | 1.0 | 5.0 | 0.00 | 0.00 | 0.00 | 59 | 1013.3 |
| 20260508142035 | 56 | 158 | 1.0 | 2.0 | 0.00 | 0.00 | 0.00 | 59 | 1013.6 |
| 20260508141535 | 55 | 137 | 1.0 | 3.0 | 0.00 | 0.00 | 0.00 | 60 | 1013.6 |
| 20260508141035 | 55 | 97 | 2.0 | 4.0 | 0.00 | 0.00 | 0.00 | 59 | 1013.6 |
| 20260508140554 | 57 | 135 | 1.0 | 3.0 | 0.00 | 0.00 | 0.00 | 59 | 1013.6 |
| 20260508140055 | 55 | 133 | 1.0 | 4.0 | 0.00 | 0.00 | 0.00 | 61 | 1013.6 |
| 20260508135535 | 55 | 163 | 2.0 | 3.0 | 0.00 | 0.00 | 0.00 | 61 | 1013.6 |
| 20260508135035 | 54 | 104 | 1.0 | 2.0 | 0.00 | 0.00 | 0.00 | 62 | 1013.5 |
| 20260508134535 | 53 | 35 | 2.0 | 5.0 | 0.00 | 0.00 | 0.00 | 66 | 1013.5 |
| 20260508134034 | 54 | 100 | 1.0 | 3.0 | 0.00 | 0.00 | 0.00 | 66 | 1013.5 |
| 20260508133554 | 53 | 170 | 1.0 | 2.0 | 0.00 | 0.00 | 0.00 | 67 | 1013.5 |
| 20260508133055 | 53 | 175 | 1.0 | 2.0 | 0.00 | 0.00 | 0.00 | 68 | 1013.5 |
| 20260508132655 | 52 | 352 | 2.0 | 4.0 | 0.00 | 0.00 | 0.00 | 68 | 1013.5 |
| 20260508132036 | 52 | 160 | 1.0 | 2.0 | 0.00 | 0.00 | 0.00 | 68 | 1013.5 |
| 20260508131534 | 51 | 237 | 2.0 | 4.0 | 0.00 | 0.00 | 0.00 | 69 | 1013.5 |
| 20260508131035 | 52 | 185 | 1.0 | 3.0 | 0.00 | 0.00 | 0.00 | 70 | 1013.5 |
| 20260508130534 | 52 | 147 | 1.0 | 2.0 | 0.00 | 0.00 | 0.00 | 69 | 1013.2 |
| 20260508130034 | 51 | 87 | 1.0 | 3.0 | 0.00 | 0.00 | 0.00 | 68 | 1013.2 |
| 20260508125535 | 51 | 149 | 1.0 | 2.0 | 0.00 | 0.00 | 0.00 | 71 | 1013.2 |
| 20260508125034 | 50 | 51 | 2.0 | 4.0 | 0.00 | 0.00 | 0.00 | 74 | 1013.2 |
| 20260508124534 | 49 | 200 | 1.0 | 2.0 | 0.00 | 0.00 | 0.00 | 75 | 1013.2 |
| 20260508124034 | 49 | 185 | 1.0 | 3.0 | 0.00 | 0.00 | 0.00 | 76 | 1013.2 |
| 20260508123534 | 49 | 217 | 0.0 | 3.0 | 0.00 | 0.00 | 0.00 | 76 | 1013.2 |
| 20260508123035 | 48 | 188 | 1.0 | 2.0 | 0.00 | 0.00 | 0.00 | 79 | 1013.1 |
| 20260508122534 | 47 | 189 | 1.0 | 3.0 | 0.00 | 0.00 | 0.00 | 79 | 1013.1 |
| 20260508122034 | 47 | 186 | 1.0 | 2.0 | 0.00 | 0.00 | 0.00 | 80 | 1013.2 |
| 20260508121535 | 46 | 202 | 2.0 | 3.0 | 0.00 | 0.00 | 0.00 | 80 | 1013.2 |
| 20260508121055 | 46 | 199 | 2.0 | 3.0 | 0.00 | 0.00 | 0.00 | 81 | 1013.1 |
| 20260508120535 | 46 | 196 | 1.0 | 2.0 | 0.00 | 0.00 | 0.00 | 82 | 1012.8 |
| 20260508120037 | 45 | 192 | 2.0 | 2.0 | 0.00 | 0.00 | 0.00 | 82 | 1012.8 |
| 20260508115534 | 45 | 184 | 1.0 | 2.0 | 0.00 | 0.00 | 0.00 | 82 | 1012.8 |
| 20260508115055 | 45 | 197 | 1.0 | 2.0 | 0.00 | 0.00 | 0.00 | 84 | 1012.8 |
| 20260508114556 | 44 | 200 | 2.0 | 3.0 | 0.00 | 0.00 | 0.00 | 84 | 1012.8 |
| 20260508114034 | 44 | 186 | 1.0 | 1.0 | 0.00 | 0.00 | 0.00 | 87 | 1012.4 |
| 20260508113534 | 43 | 181 | 1.0 | 1.0 | 0.00 | 0.00 | 0.00 | 89 | 1012.4 |
| 20260508113035 | 42 | 185 | 1.0 | 1.0 | 0.00 | 0.00 | 0.00 | 91 | 1012.4 |
| 20260508112535 | 42 | 177 | 0.0 | 1.0 | 0.00 | 0.00 | 0.00 | 90 | 1012.4 |
| 20260508112035 | 41 | 178 | 0.0 | 1.0 | 0.00 | 0.00 | 0.00 | 91 | 1012.4 |
| 20260508111534 | 41 | 171 | 0.0 | 0.0 | 0.00 | 0.00 | 0.00 | 92 | 1012.4 |
| 20260508111115 | 41 | 169 | 0.0 | 0.0 | 0.00 | 0.00 | 0.00 | 92 | 1012.4 |
| 20260508110534 | 40 | 168 | 0.0 | 0.0 | 0.00 | 0.00 | 0.00 | 92 | 1012.3 |
| 20260508110055 | 40 | 163 | 0.0 | 1.0 | 0.00 | 0.00 | 0.00 | 92 | 1012.3 |
| 20260508105534 | 40 | 167 | 0.0 | 0.0 | 0.00 | 0.00 | 0.00 | 91 | 1012.3 |
| 20260508105034 | 40 | 165 | 0.0 | 0.0 | 0.00 | 0.00 | 0.00 | 91 | 1012.3 |
| 20260508104534 | 40 | 164 | 0.0 | 0.0 | 0.00 | 0.00 | 0.00 | 91 | 1012.0 |
| 20260508104034 | 40 | 152 | 0.0 | 0.0 | 0.00 | 0.00 | 0.00 | 92 | 1012.3 |
| 20260508103535 | 40 | 146 | 0.0 | 1.0 | 0.00 | 0.00 | 0.00 | 91 | 1012.3 |
| 20260508103034 | 41 | 128 | 1.0 | 1.0 | 0.00 | 0.00 | 0.00 | 91 | 1012.3 |
| 20260508102534 | 41 | 130 | 0.0 | 1.0 | 0.00 | 0.00 | 0.00 | 90 | 1012.3 |
| 20260508102034 | 41 | 179 | 0.0 | 0.0 | 0.00 | 0.00 | 0.00 | 90 | 1012.4 |
| 20260508101534 | 41 | 182 | 1.0 | 1.0 | 0.00 | 0.00 | 0.00 | 91 | 1012.1 |
| 20260508101034 | 41 | 181 | 0.0 | 1.0 | 0.00 | 0.00 | 0.00 | 90 | 1012.1 |
| 20260508100534 | 41 | 178 | 0.0 | 1.0 | 0.00 | 0.00 | 0.00 | 90 | 1012.1 |
| 20260508100034 | 41 | 175 | 0.0 | 1.0 | 0.00 | 0.00 | 0.00 | 89 | 1012.1 |
| 20260508095534 | 41 | 191 | 1.0 | 2.0 | 0.00 | 0.00 | 0.00 | 90 | 1012.1 |
| 20260508095054 | 42 | 190 | 1.0 | 2.0 | 0.00 | 0.00 | 0.00 | 89 | 1012.1 |
| 20260508094535 | 42 | 182 | 0.0 | 1.0 | 0.00 | 0.00 | 0.00 | 91 | 1012.1 |
| 20260508094115 | 42 | 185 | 1.0 | 1.0 | 0.00 | 0.00 | 0.00 | 90 | 1012.1 |
| 20260508093534 | 41 | 184 | 1.0 | 1.0 | 0.00 | 0.00 | 0.00 | 89 | 1012.4 |
| 20260508093054 | 41 | 183 | 1.0 | 2.0 | 0.00 | 0.00 | 0.00 | 89 | 1012.1 |
| 20260508092555 | 41 | 186 | 0.0 | 2.0 | 0.00 | 0.00 | 0.00 | 89 | 1012.1 |
| 20260508092034 | 41 | 169 | 0.0 | 0.0 | 0.00 | 0.00 | 0.00 | 88 | 1012.1 |
| 20260508091534 | 42 | 176 | 0.0 | 1.0 | 0.00 | 0.00 | 0.00 | 88 | 1012.1 |
| 20260508091034 | 42 | 177 | 0.0 | 1.0 | 0.00 | 0.00 | 0.00 | 86 | 1012.1 |
| 20260508090534 | 42 | 180 | 1.0 | 1.0 | 0.00 | 0.00 | 0.00 | 87 | 1012.1 |
| 20260508090055 | 43 | 170 | 0.0 | 1.0 | 0.00 | 0.00 | 0.00 | 85 | 1012.1 |
| 20260508085534 | 43 | 183 | 0.0 | 2.0 | 0.00 | 0.00 | 0.00 | 84 | 1012.1 |
| 20260508085054 | 43 | 183 | 1.0 | 2.0 | 0.00 | 0.00 | 0.00 | 83 | 1012.4 |
| 20260508084534 | 43 | 185 | 1.0 | 2.0 | 0.00 | 0.00 | 0.00 | 83 | 1012.4 |
| 20260508084034 | 43 | 198 | 2.0 | 3.0 | 0.00 | 0.00 | 0.00 | 84 | 1012.4 |
| 20260508083534 | 44 | 194 | 1.0 | 2.0 | 0.00 | 0.00 | 0.00 | 83 | 1012.4 |
| 20260508083054 | 44 | 187 | 1.0 | 2.0 | 0.00 | 0.00 | 0.00 | 82 | 1012.4 |
| 20260508082534 | 44 | 184 | 1.0 | 2.0 | 0.00 | 0.00 | 0.00 | 81 | 1012.4 |
| 20260508082034 | 44 | 192 | 1.0 | 2.0 | 0.00 | 0.00 | 0.00 | 80 | 1012.4 |
| 20260508081534 | 44 | 191 | 1.0 | 2.0 | 0.00 | 0.00 | 0.00 | 80 | 1012.4 |
| 20260508081054 | 45 | 179 | 1.0 | 2.0 | 0.00 | 0.00 | 0.00 | 80 | 1012.4 |
| 20260508080534 | 45 | 186 | 2.0 | 3.0 | 0.00 | 0.00 | 0.00 | 79 | 1012.4 |
| 20260508080034 | 45 | 199 | 2.0 | 2.0 | 0.00 | 0.00 | 0.00 | 79 | 1012.4 |
| 20260508075535 | 45 | 188 | 1.0 | 2.0 | 0.00 | 0.00 | 0.00 | 79 | 1012.8 |
| 20260508075035 | 45 | 199 | 1.0 | 2.0 | 0.00 | 0.00 | 0.00 | 79 | 1012.8 |
| 20260508074555 | 45 | 193 | 1.0 | 2.0 | 0.00 | 0.00 | 0.00 | 79 | 1012.8 |
| 20260508074034 | 45 | 201 | 2.0 | 4.0 | 0.00 | 0.00 | 0.00 | 79 | 1012.5 |
| 20260508073555 | 44 | 205 | 2.0 | 3.0 | 0.00 | 0.00 | 0.00 | 79 | 1012.4 |
| 20260508073035 | 44 | 209 | 2.0 | 3.0 | 0.00 | 0.00 | 0.00 | 79 | 1012.4 |
| 20260508072535 | 44 | 193 | 1.0 | 3.0 | 0.00 | 0.00 | 0.00 | 80 | 1012.4 |
| 20260508072034 | 44 | 211 | 2.0 | 3.0 | 0.00 | 0.00 | 0.00 | 80 | 1012.5 |
| 20260508071534 | 44 | 201 | 1.0 | 2.0 | 0.00 | 0.00 | 0.00 | 80 | 1012.5 |
| 20260508071034 | 44 | 201 | 1.0 | 3.0 | 0.00 | 0.00 | 0.00 | 80 | 1012.8 |
| 20260508070534 | 44 | 204 | 2.0 | 3.0 | 0.00 | 0.00 | 0.00 | 79 | 1012.8 |
| 20260508070037 | 44 | 204 | 2.0 | 2.0 | 0.00 | 0.00 | 0.00 | 80 | 1012.8 |
| 20260508065534 | 44 | 199 | 1.0 | 2.0 | 0.00 | 0.00 | 0.00 | 79 | 1012.8 |
| 20260508065034 | 44 | 206 | 2.0 | 2.0 | 0.00 | 0.00 | 0.00 | 80 | 1012.8 |
| 20260508064534 | 44 | 192 | 1.0 | 2.0 | 0.00 | 0.00 | 0.00 | 81 | 1012.8 |
| 20260508064034 | 44 | 180 | 0.0 | 1.0 | 0.00 | 0.00 | 0.00 | 81 | 1012.8 |
| 20260508063534 | 44 | 193 | 1.0 | 2.0 | 0.00 | 0.00 | 0.00 | 80 | 1012.4 |
| 20260508063034 | 44 | 184 | 0.0 | 1.0 | 0.00 | 0.00 | 0.00 | 80 | 1012.4 |
| 20260508062534 | 45 | 209 | 1.0 | 2.0 | 0.00 | 0.00 | 0.00 | 78 | 1012.5 |
| 20260508062055 | 45 | 200 | 1.0 | 2.0 | 0.00 | 0.00 | 0.00 | 78 | 1012.8 |
| 20260508061534 | 45 | 208 | 2.0 | 3.0 | 0.00 | 0.00 | 0.00 | 77 | 1012.8 |
| 20260508061034 | 45 | 206 | 2.0 | 3.0 | 0.00 | 0.00 | 0.00 | 77 | 1012.8 |
| 20260508060534 | 45 | 203 | 2.0 | 4.0 | 0.00 | 0.00 | 0.00 | 74 | 1012.8 |
| 20260508060034 | 45 | 198 | 2.0 | 3.0 | 0.00 | 0.00 | 0.00 | 75 | 1012.8 |
| 20260508055534 | 45 | 190 | 1.0 | 3.0 | 0.00 | 0.00 | 0.00 | 77 | 1012.8 |
| 20260508055034 | 45 | 197 | 1.0 | 2.0 | 0.00 | 0.00 | 0.00 | 78 | 1012.8 |
| 20260508054534 | 45 | 200 | 1.0 | 2.0 | 0.00 | 0.00 | 0.00 | 77 | 1012.8 |
| 20260508054034 | 45 | 200 | 1.0 | 2.0 | 0.00 | 0.00 | 0.00 | 77 | 1012.8 |
| 20260508053535 | 45 | 195 | 1.0 | 2.0 | 0.00 | 0.00 | 0.00 | 74 | 1012.8 |
| 20260508053034 | 45 | 195 | 1.0 | 3.0 | 0.00 | 0.00 | 0.00 | 74 | 1012.8 |
| 20260508052534 | 45 | 197 | 1.0 | 3.0 | 0.00 | 0.00 | 0.00 | 75 | 1012.8 |
| 20260508052034 | 45 | 187 | 0.0 | 1.0 | 0.00 | 0.00 | 0.00 | 76 | 1012.8 |
| 20260508051534 | 45 | 192 | 1.0 | 1.0 | 0.00 | 0.00 | 0.00 | 76 | 1012.8 |
| 20260508051034 | 45 | 196 | 1.0 | 2.0 | 0.00 | 0.00 | 0.00 | 74 | 1012.8 |
| 20260508050534 | 46 | 202 | 1.0 | 2.0 | 0.00 | 0.00 | 0.00 | 73 | 1012.8 |
| 20260508050034 | 46 | 200 | 1.0 | 3.0 | 0.00 | 0.00 | 0.00 | 73 | 1012.8 |
| 20260508045554 | 46 | 196 | 1.0 | 2.0 | 0.00 | 0.00 | 0.00 | 74 | 1012.8 |
| 20260508045034 | 47 | 197 | 1.0 | 2.0 | 0.00 | 0.00 | 0.00 | 73 | 1012.8 |
| 20260508044534 | 47 | 204 | 2.0 | 4.0 | 0.00 | 0.00 | 0.00 | 70 | 1012.8 |
| 20260508044034 | 47 | 205 | 3.0 | 5.0 | 0.00 | 0.00 | 0.00 | 68 | 1012.8 |
| 20260508043534 | 47 | 196 | 2.0 | 5.0 | 0.00 | 0.00 | 0.00 | 68 | 1012.8 |
| 20260508043034 | 47 | 190 | 2.0 | 4.0 | 0.00 | 0.00 | 0.00 | 68 | 1012.8 |
| 20260508042554 | 48 | 187 | 2.0 | 4.0 | 0.00 | 0.00 | 0.00 | 68 | 1012.8 |
| 20260508042054 | 48 | 199 | 2.0 | 3.0 | 0.00 | 0.00 | 0.00 | 67 | 1012.8 |
| 20260508041554 | 48 | 197 | 2.0 | 4.0 | 0.00 | 0.00 | 0.00 | 66 | 1012.8 |
| 20260508041035 | 49 | 200 | 2.0 | 4.0 | 0.00 | 0.00 | 0.00 | 66 | 1012.8 |
| 20260508040534 | 49 | 202 | 2.0 | 5.0 | 0.00 | 0.00 | 0.00 | 65 | 1012.8 |
| 20260508040034 | 49 | 210 | 3.0 | 6.0 | 0.00 | 0.00 | 0.00 | 65 | 1012.8 |
| 20260508035615 | 49 | 205 | 3.0 | 6.0 | 0.00 | 0.00 | 0.00 | 65 | 1012.8 |
| 20260508035034 | 50 | 207 | 4.0 | 6.0 | 0.00 | 0.00 | 0.00 | 64 | 1013.1 |
| 20260508034535 | 50 | 217 | 4.0 | 7.0 | 0.00 | 0.00 | 0.00 | 63 | 1013.1 |
| 20260508034054 | 50 | 208 | 4.0 | 7.0 | 0.00 | 0.00 | 0.00 | 64 | 1013.1 |
| 20260508033534 | 50 | 206 | 4.0 | 6.0 | 0.00 | 0.00 | 0.00 | 64 | 1013.1 |
| 20260508033034 | 50 | 202 | 3.0 | 6.0 | 0.00 | 0.00 | 0.00 | 64 | 1013.5 |
| 20260508032534 | 50 | 211 | 3.0 | 5.0 | 0.00 | 0.00 | 0.00 | 64 | 1013.5 |
| 20260508032034 | 50 | 205 | 3.0 | 5.0 | 0.00 | 0.00 | 0.00 | 64 | 1013.1 |
| 20260508031535 | 50 | 205 | 2.0 | 5.0 | 0.00 | 0.00 | 0.00 | 63 | 1013.1 |
| 20260508031034 | 50 | 203 | 2.0 | 4.0 | 0.00 | 0.00 | 0.00 | 62 | 1013.1 |
| 20260508030534 | 51 | 204 | 2.0 | 5.0 | 0.00 | 0.00 | 0.00 | 62 | 1013.1 |
| 20260508030034 | 51 | 214 | 3.0 | 5.0 | 0.00 | 0.00 | 0.00 | 62 | 1013.1 |
| 20260508025535 | 51 | 217 | 3.0 | 5.0 | 0.00 | 0.00 | 0.00 | 61 | 1013.1 |
| 20260508025034 | 51 | 217 | 4.0 | 9.0 | 0.00 | 0.00 | 0.00 | 60 | 1013.1 |
| 20260508024534 | 51 | 213 | 3.0 | 6.0 | 0.00 | 0.00 | 0.00 | 61 | 1013.1 |
| 20260508024054 | 51 | 207 | 3.0 | 6.0 | 0.00 | 0.00 | 0.00 | 60 | 1013.1 |
| 20260508023534 | 51 | 228 | 4.0 | 7.0 | 0.00 | 0.00 | 0.00 | 59 | 1013.1 |
| 20260508023034 | 51 | 238 | 4.0 | 10.0 | 0.00 | 0.00 | 0.00 | 59 | 1013.1 |
| 20260508022534 | 52 | 236 | 4.0 | 8.0 | 0.00 | 0.00 | 0.00 | 58 | 1013.2 |
| 20260508022034 | 52 | 229 | 4.0 | 9.0 | 0.00 | 0.00 | 0.00 | 55 | 1013.2 |
| 20260508021554 | 52 | 218 | 5.0 | 9.0 | 0.00 | 0.00 | 0.00 | 53 | 1013.1 |
| 20260508021034 | 52 | 217 | 3.0 | 5.0 | 0.00 | 0.00 | 0.00 | 54 | 1013.1 |
| 20260508020534 | 52 | 208 | 3.0 | 5.0 | 0.00 | 0.00 | 0.00 | 52 | 1012.8 |
| 20260508020034 | 52 | 204 | 4.0 | 6.0 | 0.00 | 0.00 | 0.00 | 51 | 1012.8 |
| 20260508015534 | 52 | 205 | 3.0 | 5.0 | 0.00 | 0.00 | 0.00 | 50 | 1012.5 |
| 20260508015035 | 52 | 228 | 2.0 | 5.0 | 0.00 | 0.00 | 0.00 | 51 | 1012.5 |
| 20260508014534 | 52 | 220 | 2.0 | 5.0 | 0.00 | 0.00 | 0.00 | 51 | 1012.5 |
| 20260508014034 | 53 | 235 | 3.0 | 6.0 | 0.00 | 0.00 | 0.00 | 50 | 1012.5 |
| 20260508013534 | 52 | 243 | 5.0 | 10.0 | 0.00 | 0.00 | 0.00 | 51 | 1012.5 |
| 20260508013034 | 52 | 232 | 6.0 | 15.0 | 0.00 | 0.00 | 0.00 | 52 | 1012.4 |
| 20260508012534 | 51 | 206 | 2.0 | 4.0 | 0.00 | 0.00 | 0.00 | 53 | 1012.1 |
| 20260508012034 | 51 | 179 | 1.0 | 1.0 | 0.00 | 0.00 | 0.00 | 53 | 1012.1 |
| 20260508011534 | 52 | 180 | 0.0 | 1.0 | 0.00 | 0.00 | 0.00 | 57 | 1012.1 |
| 20260508011034 | 52 | 187 | 1.0 | 1.0 | 0.00 | 0.00 | 0.00 | 53 | 1012.1 |
| 20260508010554 | 52 | 182 | 0.0 | 1.0 | 0.00 | 0.00 | 0.00 | 51 | 1012.1 |
| 20260508010034 | 52 | 187 | 1.0 | 1.0 | 0.00 | 0.00 | 0.00 | 51 | 1012.1 |
| 20260508005554 | 52 | 186 | 1.0 | 1.0 | 0.00 | 0.00 | 0.00 | 46 | 1012.1 |
| 20260508005054 | 52 | 182 | 0.0 | 1.0 | 0.00 | 0.00 | 0.00 | 48 | 1012.1 |
| 20260508004535 | 52 | 179 | 0.0 | 0.0 | 0.00 | 0.00 | 0.00 | 50 | 1012.0 |
| 20260508004054 | 52 | 179 | 0.0 | 0.0 | 0.00 | 0.00 | 0.00 | 49 | 1012.0 |
| 20260508003534 | 53 | 185 | 0.0 | 1.0 | 0.00 | 0.00 | 0.00 | 47 | 1012.1 |
| 20260508003034 | 53 | 203 | 1.0 | 2.0 | 0.00 | 0.00 | 0.00 | 45 | 1012.1 |
| 20260508002554 | 54 | 213 | 1.0 | 2.0 | 0.00 | 0.00 | 0.00 | 45 | 1012.1 |
| 20260508002034 | 54 | 211 | 1.0 | 3.0 | 0.00 | 0.00 | 0.00 | 43 | 1012.1 |
| 20260508001534 | 55 | 232 | 3.0 | 5.0 | 0.00 | 0.00 | 0.00 | 41 | 1012.0 |
| 20260508001034 | 55 | 242 | 2.0 | 5.0 | 0.00 | 0.00 | 0.00 | 41 | 1012.0 |
| 20260508000534 | 56 | 247 | 4.0 | 7.0 | 0.00 | 0.00 | 0.00 | 39 | 1012.0 |
| 20260508000035 | 55 | 247 | 3.0 | 7.0 | 0.00 | 0.00 | 0.00 | 40 | 1012.0 |
| 20260507235534 | 56 | 262 | 3.0 | 5.0 | 0.00 | 0.00 | 0.00 | 40 | 1012.0 |
| 20260507235055 | 57 | 285 | 3.0 | 6.0 | 0.00 | 0.00 | 0.00 | 39 | 1012.0 |
| 20260507234534 | 56 | 254 | 4.0 | 8.0 | 0.00 | 0.00 | 0.00 | 39 | 1011.9 |
| 20260507234034 | 56 | 252 | 3.0 | 6.0 | 0.00 | 0.00 | 0.00 | 39 | 1012.3 |
| 20260507233535 | 58 | 268 | 4.0 | 8.0 | 0.00 | 0.00 | 0.00 | 37 | 1012.0 |
| 20260507233034 | 58 | 286 | 4.0 | 7.0 | 0.00 | 0.00 | 0.00 | 38 | 1012.0 |
| 20260507232614 | 57 | 258 | 4.0 | 8.0 | 0.00 | 0.00 | 0.00 | 38 | 1012.3 |
| 20260507232035 | 56 | 254 | 5.0 | 8.0 | 0.00 | 0.00 | 0.00 | 38 | 1012.2 |
| 20260507231554 | 56 | 261 | 6.0 | 13.0 | 0.00 | 0.00 | 0.00 | 38 | 1012.3 |
| 20260507231034 | 56 | 236 | 5.0 | 8.0 | 0.00 | 0.00 | 0.00 | 38 | 1012.3 |
| 20260507230534 | 57 | 256 | 4.0 | 8.0 | 0.00 | 0.00 | 0.00 | 38 | 1012.3 |
| 20260507230034 | 57 | 242 | 4.0 | 8.0 | 0.00 | 0.00 | 0.00 | 38 | 1012.3 |
| 20260507225534 | 57 | 269 | 4.0 | 7.0 | 0.00 | 0.00 | 0.00 | 38 | 1012.3 |
| 20260507225034 | 57 | 268 | 4.0 | 7.0 | 0.00 | 0.00 | 0.00 | 38 | 1012.3 |
| 20260507224554 | 57 | 279 | 5.0 | 8.0 | 0.00 | 0.00 | 0.00 | 37 | 1012.3 |
| 20260507224035 | 57 | 294 | 6.0 | 10.0 | 0.00 | 0.00 | 0.00 | 37 | 1012.3 |
| 20260507223534 | 59 | 264 | 5.0 | 10.0 | 0.00 | 0.00 | 0.00 | 36 | 1012.3 |
| 20260507223034 | 59 | 300 | 5.0 | 9.0 | 0.00 | 0.00 | 0.00 | 35 | 1012.3 |
| 20260507222554 | 57 | 251 | 4.0 | 9.0 | 0.00 | 0.00 | 0.00 | 37 | 1012.3 |
| 20260507222034 | 56 | 305 | 7.0 | 12.0 | 0.00 | 0.00 | 0.00 | 37 | 1012.2 |
| 20260507221534 | 57 | 278 | 6.0 | 12.0 | 0.00 | 0.00 | 0.00 | 38 | 1012.3 |
| 20260507221115 | 58 | 247 | 6.0 | 11.0 | 0.00 | 0.00 | 0.00 | 36 | 1012.4 |
| 20260507220534 | 59 | 270 | 6.0 | 10.0 | 0.00 | 0.00 | 0.00 | 35 | 1012.4 |
| 20260507220034 | 58 | 275 | 8.0 | 15.0 | 0.00 | 0.00 | 0.00 | 36 | 1012.4 |
| 20260507215534 | 59 | 270 | 7.0 | 16.0 | 0.00 | 0.00 | 0.00 | 35 | 1012.4 |
| 20260507215036 | 60 | 282 | 6.0 | 11.0 | 0.00 | 0.00 | 0.00 | 35 | 1012.4 |
| 20260507214534 | 59 | 280 | 6.0 | 14.0 | 0.00 | 0.00 | 0.00 | 35 | 1012.4 |
| 20260507214055 | 58 | 245 | 8.0 | 12.0 | 0.00 | 0.00 | 0.00 | 36 | 1012.4 |
| 20260507213534 | 58 | 264 | 8.0 | 13.0 | 0.00 | 0.00 | 0.00 | 35 | 1012.4 |
| 20260507213034 | 57 | 272 | 6.0 | 12.0 | 0.00 | 0.00 | 0.00 | 37 | 1012.4 |
| 20260507212535 | 57 | 264 | 7.0 | 16.0 | 0.00 | 0.00 | 0.00 | 36 | 1012.4 |
| 20260507212034 | 59 | 241 | 8.0 | 14.0 | 0.00 | 0.00 | 0.00 | 34 | 1012.4 |
| 20260507211534 | 59 | 262 | 8.0 | 15.0 | 0.00 | 0.00 | 0.00 | 34 | 1012.4 |
| 20260507211054 | 59 | 250 | 8.0 | 13.0 | 0.00 | 0.00 | 0.00 | 35 | 1012.5 |
| 20260507210534 | 59 | 249 | 8.0 | 14.0 | 0.00 | 0.00 | 0.00 | 35 | 1012.4 |
| 20260507210034 | 59 | 243 | 9.0 | 16.0 | 0.00 | 0.00 | 0.00 | 35 | 1012.4 |